DURO2: Washita River Durwood, OK

Data processed at Thu May 23 2019 23:50


All information presented herein is the property of the government of the United States of America and may be revised or deleted at any time without prior notice.
Dissemination of this information without the expressed written consent of the Public Affairs Office, Tulsa District U.S. Army Corps of Engineers is strictly prohibited.
These data are gathered electronically and, as presented, have not undergone any form of quality control. These data are not guaranteed to be valid or correct.
Go to home page.
Go to station list.
Go to home page.

Upstream stations:

Downstream station:
Previous Day
Next Day
Current Day
    
SHEF ID:       DURO2     Washita River near Dickson, OK
STATION TYPE:  
Regulating: Stage =    27.00, Flow =    37677

               PRECIP PRECIP(A)     STAGE  RIV-FLOW  BAT-LOAD
                   in        in        ft       cfs      volt
              Ccp-Rev   Ccp-Rev   Ccp-Rev   Ccp-Rev   Ccp-Rev
(US/Central)
05/23 00:00      0.00      ----     17.52     14081     12.49
05/23 01:00      0.00      ----     17.52     14081     12.49
05/23 02:00      0.00      ----     17.55     14145     12.49
05/23 03:00      0.00      ----     17.58     14209     12.49
05/23 04:00      0.00      ----     17.58     14209     12.49
05/23 05:00      0.00      ----     17.60     14252     12.41
05/23 06:00      0.00      ----     17.59     14231     12.41
05/23 07:00      0.00      ----     17.60     14252     12.41
05/23 08:00      0.00      ----     17.62     14295     12.49
05/23 09:00      0.00      ----     17.59     14231     12.57
05/23 10:00      0.00      ----     17.58     14209     12.89
05/23 11:00      0.00      ----     17.56     14166     12.89
05/23 12:00      0.00      ----     17.58     14209     12.81
05/23 13:00      0.00      ----     17.51     14060     12.73
05/23 14:00      0.00      ----     17.46     13953     12.65
05/23 15:00      0.00      ----     17.46     13953     12.73
05/23 16:00      0.00      ----     17.41     13847     12.81
05/23 17:00      0.00      ----     17.35     13720     12.73
05/23 18:00      0.00      ----     17.33     13678     12.65
05/23 19:00      0.00      ----     17.24     13488     12.65
05/23 20:00      0.00      ----     17.21     13426     12.65
05/23 21:00      0.00      ----     17.15     13300     12.57
05/23 22:00      0.00      ----     17.11     13217     12.57
05/23 23:00      0.00      ----     17.05     13093     12.49